Time;durP1;ratioP1;P1;durP2;ratioP2;P2;SDS_P1;SDS_P2;PMS_P1;PMS_P2;Temp;Humidity;BMP_temperature;BMP_pressure;BME280_temperature;BME280_humidity;BME280_pressure;Samples;Min_cycle;Max_cycle;Signal;HPM_P1;HPM_P2
2023/03/31 00:02:54;;;;;;;7.60;3.08;;;;;;;-146.19;100.00;58918.88;4994664;28;20573;-52
2023/03/31 00:05:58;;;;;;;6.63;3.03;;;;;;;-146.19;100.00;58918.88;4987438;28;20054;-55
2023/03/31 00:08:34;;;;;;;10.98;3.38;;;;;;;-146.19;100.00;58918.88;4989630;28;20070;-51
2023/03/31 00:11:05;;;;;;;6.15;3.28;;;;;;;-146.19;100.00;58918.88;4984478;28;20090;-51
2023/03/31 00:13:35;;;;;;;8.13;3.47;;;;;;;-146.19;100.00;58918.88;4989970;28;20066;-57
2023/03/31 00:16:04;;;;;;;7.35;3.65;;;;;;;-146.19;100.00;58918.88;4988386;28;20531;-53
2023/03/31 00:18:34;;;;;;;7.38;3.42;;;;;;;-146.19;100.00;58918.88;4989342;28;20089;-50
2023/03/31 00:21:13;;;;;;;6.07;3.70;;;;;;;-146.19;100.00;58918.88;4984667;28;20105;-52
2023/03/31 00:23:43;;;;;;;8.25;3.60;;;;;;;-146.19;100.00;58918.88;4991893;28;20100;-50
2023/03/31 00:26:11;;;;;;;12.25;4.18;;;;;;;-146.19;100.00;58918.88;4985993;28;20094;-53
2023/03/31 00:28:39;;;;;;;7.68;3.65;;;;;;;-146.19;100.00;58918.88;4988489;28;20078;-51
2023/03/31 00:31:08;;;;;;;12.82;4.60;;;;;;;-146.19;100.00;58918.88;4986917;28;20089;-50
2023/03/31 00:33:36;;;;;;;6.43;4.10;;;;;;;-146.19;100.00;58918.88;4994337;28;20104;-51
2023/03/31 00:36:05;;;;;;;8.93;4.60;;;;;;;-146.19;100.00;58918.88;4987990;28;20476;-49
2023/03/31 00:38:34;;;;;;;9.88;4.68;;;;;;;-146.19;100.00;58918.88;4987047;28;20078;-50
2023/03/31 00:41:05;;;;;;;9.75;4.80;;;;;;;-146.19;100.00;58918.88;5001551;28;20073;-49
2023/03/31 00:43:35;;;;;;;9.50;4.22;;;;;;;-146.19;100.00;58918.88;4998197;28;20070;-53
2023/03/31 00:46:22;;;;;;;7.70;4.38;;;;;;;-146.19;100.00;58918.88;4992020;28;20085;-56
2023/03/31 00:48:56;;;;;;;6.93;4.30;;;;;;;-146.19;100.00;58918.88;4994759;28;20089;-54
2023/03/31 00:51:27;;;;;;;8.38;4.30;;;;;;;-146.19;100.00;58918.88;4996373;28;20085;-54
2023/03/31 00:53:58;;;;;;;;;;;;;;;-146.19;100.00;58918.88;4993886;28;20803;-52
2023/03/31 00:56:30;;;;;;;8.70;4.50;;;;;;;-146.19;100.00;58918.88;4998581;28;19963;-51
2023/03/31 00:59:03;;;;;;;8.82;3.90;;;;;;;-146.19;100.00;58918.88;4991522;28;20086;-58
2023/03/31 01:01:34;;;;;;;5.72;4.00;;;;;;;-146.19;100.00;58918.88;4991436;28;20756;-50
2023/03/31 01:04:03;;;;;;;14.57;4.10;;;;;;;-146.19;100.00;58918.88;4992693;28;20092;-59
2023/03/31 01:06:32;;;;;;;7.82;4.30;;;;;;;-146.19;100.00;58918.88;4997454;28;20124;-52
2023/03/31 01:09:05;;;;;;;9.52;4.68;;;;;;;-146.19;100.00;58918.88;4994318;28;20042;-49
2023/03/31 01:11:35;;;;;;;10.82;4.68;;;;;;;-146.19;100.00;58918.88;4990922;28;20046;-49
2023/03/31 01:14:04;;;;;;;8.75;4.40;;;;;;;-146.19;100.00;58918.88;4994384;28;20081;-55
2023/03/31 01:16:32;;;;;;;7.45;4.22;;;;;;;-146.19;100.00;58918.88;4989545;28;20100;-49
2023/03/31 01:19:02;;;;;;;9.82;4.43;;;;;;;-146.19;100.00;58918.88;4998841;28;20085;-52
2023/03/31 01:21:58;;;;;;;6.78;4.25;;;;;;;-146.19;100.00;58918.88;4991124;28;20062;-52
2023/03/31 01:25:05;;;;;;;8.23;5.15;;;;;;;-146.19;100.00;58918.88;4991186;28;20587;-57
2023/03/31 01:27:49;;;;;;;6.90;4.10;;;;;;;-146.19;100.00;58918.88;4994144;28;20078;-51
2023/03/31 01:30:51;;;;;;;8.13;5.03;;;;;;;-146.19;100.00;58918.88;4992849;28;20077;-53
2023/03/31 01:33:43;;;;;;;7.70;4.40;;;;;;;-146.19;100.00;58918.88;4992619;28;20082;-55
2023/03/31 01:36:26;;;;;;;8.95;4.50;;;;;;;-146.19;100.00;58918.88;4988145;28;20093;-50
2023/03/31 01:39:19;;;;;;;8.75;4.88;;;;;;;-146.19;100.00;58918.88;4994839;28;20085;-47
2023/03/31 01:41:55;;;;;;;9.98;4.82;;;;;;;-146.19;100.00;58918.88;4990022;28;20157;-54
2023/03/31 01:44:31;;;;;;;7.18;4.43;;;;;;;-146.19;100.00;58918.88;5000271;28;20046;-55
2023/03/31 01:47:02;;;;;;;7.18;4.47;;;;;;;-146.19;100.00;58918.88;4992784;28;20456;-55
2023/03/31 01:49:35;;;;;;;11.13;4.50;;;;;;;-146.19;100.00;58918.88;4997252;28;20078;-54
2023/03/31 01:52:07;;;;;;;7.40;4.43;;;;;;;-146.19;100.00;58918.88;4993589;28;20082;-53
2023/03/31 01:54:39;;;;;;;10.00;5.03;;;;;;;-146.19;100.00;58918.88;4993845;28;20098;-57
2023/03/31 01:57:13;;;;;;;11.95;5.60;;;;;;;-146.19;100.00;58918.88;4990437;28;20465;-57
2023/03/31 01:59:46;;;;;;;10.90;5.07;;;;;;;-146.19;100.00;58918.88;4998747;28;20099;-52
2023/03/31 02:02:17;;;;;;;10.88;4.97;;;;;;;-146.19;100.00;58918.88;4995372;28;20073;-55
2023/03/31 02:04:48;;;;;;;10.20;4.50;;;;;;;-146.19;100.00;58918.88;4988767;28;20541;-59
2023/03/31 02:07:17;;;;;;;;;;;;;;;-146.19;100.00;58918.88;4991458;28;20080;-59
2023/03/31 02:09:50;;;;;;;9.73;4.70;;;;;;;-146.19;100.00;58918.88;4992051;28;19961;-53
2023/03/31 02:12:22;;;;;;;9.43;5.10;;;;;;;-146.19;100.00;58918.88;5007602;28;20062;-55
2023/03/31 02:15:37;;;;;;;9.30;5.10;;;;;;;-146.19;100.00;58918.88;4992295;28;20357;-59
2023/03/31 02:21:25;;;;;;;9.93;5.43;;;;;;;-146.19;100.00;58918.88;4987715;28;20054;-53
2023/03/31 02:23:58;;;;;;;10.20;4.97;;;;;;;-146.19;100.00;58918.88;5026081;28;20049;-55
2023/03/31 02:29:39;;;;;;;11.38;4.85;;;;;;;-146.19;100.00;58918.88;4995378;28;20042;-49
2023/03/31 02:32:14;;;;;;;10.27;5.55;;;;;;;-146.19;100.00;58918.88;5000769;28;20665;-54
2023/03/31 02:41:46;;;;;;;10.10;4.93;;;;;;;-146.19;100.00;58918.88;5007347;28;20050;-53
2023/03/31 02:44:38;;;;;;;9.63;5.13;;;;;;;-146.19;100.00;58918.88;4994815;28;20046;-56
2023/03/31 02:47:12;;;;;;;11.15;5.43;;;;;;;-146.19;100.00;58918.88;5006524;28;20147;-52
2023/03/31 02:49:42;;;;;;;9.38;5.07;;;;;;;-146.19;100.00;58918.88;4985886;28;20096;-53
2023/03/31 02:52:23;;;;;;;;;;;;;;;-146.19;100.00;58918.88;4984405;28;20108;-51
2023/03/31 02:55:06;;;;;;;;;;;;;;;-146.19;100.00;58918.88;4984113;28;20375;-49
2023/03/31 02:58:11;;;;;;;15.20;5.57;;;;;;;-146.19;100.00;58918.88;4983009;28;19965;-53
2023/03/31 03:00:53;;;;;;;10.27;5.43;;;;;;;-146.19;100.00;58918.88;4982612;28;20110;-50
2023/03/31 03:03:32;;;;;;;8.18;5.00;;;;;;;-146.19;100.00;58918.88;4983691;28;20086;-51
2023/03/31 03:06:05;;;;;;;13.18;5.07;;;;;;;-146.19;100.00;58918.88;4987724;28;20082;-50
2023/03/31 03:08:43;;;;;;;10.55;5.00;;;;;;;-146.19;100.00;58918.88;4986189;28;20082;-51
2023/03/31 03:11:17;;;;;;;12.48;5.60;;;;;;;-146.19;100.00;58918.88;4982353;28;20569;-51
2023/03/31 03:13:49;;;;;;;11.68;5.10;;;;;;;-146.19;100.00;58918.88;4983768;28;20499;-53
2023/03/31 03:16:23;;;;;;;8.20;5.03;;;;;;;-146.19;100.00;58918.88;4988904;28;20092;-55
2023/03/31 03:19:04;;;;;;;8.88;4.75;;;;;;;-146.19;100.00;58918.88;4989406;28;20090;-51
2023/03/31 03:21:32;;;;;;;9.15;5.15;;;;;;;-146.19;100.00;58918.88;4984246;28;20082;-51
2023/03/31 03:24:01;;;;;;;7.45;4.90;;;;;;;-146.19;100.00;58918.88;4988921;28;20551;-51
2023/03/31 03:26:33;;;;;;;7.90;5.00;;;;;;;-146.19;100.00;58918.88;4985430;28;20135;-55
2023/03/31 03:29:02;;;;;;;9.98;5.05;;;;;;;-146.19;100.00;58918.88;4984406;28;20082;-49
2023/03/31 03:31:32;;;;;;;9.15;4.82;;;;;;;-146.19;100.00;58918.88;4984570;28;20082;-57
2023/03/31 03:34:02;;;;;;;10.30;4.85;;;;;;;-146.19;100.00;58918.88;4984521;28;20086;-52
2023/03/31 03:36:30;;;;;;;8.17;4.60;;;;;;;-146.19;100.00;58918.88;4992366;28;20100;-53
2023/03/31 03:38:58;;;;;;;8.35;5.03;;;;;;;-146.19;100.00;58918.88;4989360;28;20089;-51
2023/03/31 03:41:27;;;;;;;10.38;4.22;;;;;;;-146.19;100.00;58918.88;4995248;28;20073;-49
2023/03/31 03:43:56;;;;;;;7.18;4.13;;;;;;;-146.19;100.00;58918.88;4995671;28;20562;-53
2023/03/31 03:46:24;;;;;;;9.20;4.15;;;;;;;-146.19;100.00;58918.88;4987894;28;20082;-52
2023/03/31 03:48:53;;;;;;;7.95;3.90;;;;;;;-146.19;100.00;58918.88;4990609;28;20090;-61
2023/03/31 03:51:22;;;;;;;7.65;3.72;;;;;;;-146.19;100.00;58918.88;4986509;28;20093;-52
2023/03/31 03:53:51;;;;;;;9.07;4.30;;;;;;;-146.19;100.00;58918.88;4993807;28;20085;-54
2023/03/31 03:56:20;;;;;;;8.43;4.47;;;;;;;-146.19;100.00;58918.88;4986445;28;20516;-55
2023/03/31 03:58:49;;;;;;;10.83;4.33;;;;;;;-146.19;100.00;58918.88;4981056;28;20088;-56
2023/03/31 04:01:18;;;;;;;9.32;4.97;;;;;;;-146.19;100.00;58918.88;4985047;28;20509;-59
2023/03/31 04:03:46;;;;;;;9.40;5.20;;;;;;;-146.19;100.00;58918.88;4981416;28;20138;-53
2023/03/31 04:06:14;;;;;;;10.80;5.22;;;;;;;-146.19;100.00;58918.88;4986301;28;20086;-57
2023/03/31 04:08:44;;;;;;;12.13;5.60;;;;;;;-146.19;100.00;58918.88;4984193;28;20156;-57
2023/03/31 04:11:15;;;;;;;10.18;4.60;;;;;;;-146.19;100.00;58918.88;4984015;28;20082;-60
2023/03/31 04:13:46;;;;;;;10.43;5.20;;;;;;;-146.19;100.00;58918.88;4990572;28;20119;-50
2023/03/31 04:16:15;;;;;;;9.23;5.63;;;;;;;-146.19;100.00;58918.88;4990751;28;20097;-53
2023/03/31 04:18:43;;;;;;;15.82;5.22;;;;;;;-146.19;100.00;58918.88;4991900;28;20082;-50
2023/03/31 04:21:14;;;;;;;10.52;5.18;;;;;;;-146.19;100.00;58918.88;4997728;28;20081;-53
2023/03/31 04:23:46;;;;;;;10.93;4.85;;;;;;;-146.19;100.00;58918.88;4990815;28;20080;-49
2023/03/31 04:26:16;;;;;;;9.70;4.80;;;;;;;-146.19;100.00;58918.88;4996554;28;20535;-55
2023/03/31 04:28:49;;;;;;;10.32;5.20;;;;;;;-146.19;100.00;58918.88;4992061;28;20084;-49
2023/03/31 04:31:24;;;;;;;8.32;4.80;;;;;;;-146.19;100.00;58918.88;4992785;28;20484;-55
2023/03/31 04:33:52;;;;;;;11.95;5.28;;;;;;;-146.19;100.00;58918.88;4998688;28;20093;-48
2023/03/31 04:36:21;;;;;;;10.77;5.30;;;;;;;-146.19;100.00;58918.88;4994483;28;20469;-48
2023/03/31 04:38:53;;;;;;;8.93;4.95;;;;;;;-146.19;100.00;58918.88;4995528;28;20077;-50
2023/03/31 04:41:22;;;;;;;8.27;5.25;;;;;;;-146.19;100.00;58918.88;4993458;28;20084;-53
2023/03/31 04:43:51;;;;;;;11.05;5.45;;;;;;;-146.19;100.00;58918.88;4993440;28;20100;-53
2023/03/31 04:46:19;;;;;;;9.00;5.18;;;;;;;-146.19;100.00;58918.88;4990653;28;20081;-50
2023/03/31 04:48:47;;;;;;;10.02;5.15;;;;;;;-146.19;100.00;58918.88;4999702;28;20074;-49
2023/03/31 04:51:16;;;;;;;12.77;5.40;;;;;;;-146.19;100.00;58918.88;4991257;28;20561;-51
2023/03/31 04:53:44;;;;;;;10.57;5.43;;;;;;;-146.19;100.00;58918.88;4998771;28;20082;-48
2023/03/31 04:56:14;;;;;;;9.85;5.25;;;;;;;-146.19;100.00;58918.88;4995640;28;20085;-54
2023/03/31 04:58:43;;;;;;;10.05;5.15;;;;;;;-146.19;100.00;58918.88;4993906;28;20101;-48
2023/03/31 05:01:16;;;;;;;11.98;5.65;;;;;;;-146.19;100.00;58918.88;4991063;28;20081;-55
2023/03/31 05:03:46;;;;;;;12.60;4.85;;;;;;;-146.19;100.00;58918.88;4999328;28;20060;-55
2023/03/31 05:06:15;;;;;;;10.10;5.30;;;;;;;-146.19;100.00;58918.88;4999295;28;20622;-60
2023/03/31 05:08:44;;;;;;;13.88;6.45;;;;;;;-146.19;100.00;58918.88;4994154;28;20077;-52
2023/03/31 05:11:13;;;;;;;12.13;5.72;;;;;;;-146.19;100.00;58918.88;4997879;28;20086;-50
2023/03/31 05:13:42;;;;;;;10.23;5.10;;;;;;;-146.19;100.00;58918.88;4996156;28;20086;-48
2023/03/31 05:16:13;;;;;;;12.18;5.50;;;;;;;-146.19;100.00;58918.88;4996347;28;20078;-52
2023/03/31 05:18:42;;;;;;;10.95;5.32;;;;;;;-146.19;100.00;58918.88;4995177;28;20527;-56
2023/03/31 05:21:11;;;;;;;14.88;5.60;;;;;;;-146.19;100.00;58918.88;5004168;28;20614;-55
2023/03/31 05:23:40;;;;;;;9.50;5.35;;;;;;;-146.19;100.00;58918.88;4993381;28;20074;-51
2023/03/31 05:26:08;;;;;;;10.43;5.47;;;;;;;-146.19;100.00;58918.88;5002379;28;20073;-51
2023/03/31 05:28:38;;;;;;;11.65;5.07;;;;;;;-146.19;100.00;58918.88;4998957;28;20123;-55
2023/03/31 05:31:07;;;;;;;11.35;5.78;;;;;;;-146.19;100.00;58918.88;4992357;28;20431;-53
2023/03/31 05:33:39;;;;;;;12.30;5.15;;;;;;;-146.19;100.00;58918.88;4996734;28;20400;-53
2023/03/31 05:36:08;;;;;;;13.75;5.32;;;;;;;-146.19;100.00;58918.88;5004489;28;20065;-53
2023/03/31 05:38:38;;;;;;;14.98;5.93;;;;;;;-146.19;100.00;58918.88;4995129;28;20081;-53
2023/03/31 05:41:08;;;;;;;10.07;5.78;;;;;;;-146.19;100.00;58918.88;4990547;28;20073;-52
2023/03/31 05:43:38;;;;;;;13.60;5.70;;;;;;;-146.19;100.00;58918.88;4996068;28;20070;-50
2023/03/31 05:46:06;;;;;;;13.60;7.28;;;;;;;-146.19;100.00;58918.88;4990286;28;20135;-57
2023/03/31 05:48:37;;;;;;;12.00;5.90;;;;;;;-146.19;100.00;58918.88;4995387;28;20069;-54
2023/03/31 05:51:05;;;;;;;11.57;5.53;;;;;;;-146.19;100.00;58918.88;4994772;28;20506;-52
2023/03/31 05:53:34;;;;;;;10.48;5.43;;;;;;;-146.19;100.00;58918.88;4996747;28;20113;-51
2023/03/31 05:56:04;;;;;;;14.27;5.40;;;;;;;-146.19;100.00;58918.88;4994318;28;20110;-51
2023/03/31 05:58:34;;;;;;;10.63;5.68;;;;;;;-146.19;100.00;58918.88;4995955;28;20539;-50
2023/03/31 06:01:06;;;;;;;11.27;5.57;;;;;;;-146.19;100.00;58918.88;5000081;28;20081;-49
2023/03/31 06:03:37;;;;;;;11.98;6.43;;;;;;;-146.19;100.00;58918.88;4993506;28;20471;-52
2023/03/31 06:06:06;;;;;;;11.90;5.70;;;;;;;-146.19;100.00;58918.88;4997237;28;20523;-54
2023/03/31 06:08:36;;;;;;;10.88;5.60;;;;;;;-146.19;100.00;58918.88;4994109;28;20078;-52
2023/03/31 06:11:06;;;;;;;11.00;5.93;;;;;;;-146.19;100.00;58918.88;4995940;28;20121;-50
2023/03/31 06:13:35;;;;;;;11.40;6.63;;;;;;;-146.19;100.00;58918.88;4991800;28;20070;-50
2023/03/31 06:16:05;;;;;;;10.25;5.50;;;;;;;-146.19;100.00;58918.88;4996279;28;20108;-50
2023/03/31 06:18:35;;;;;;;12.07;5.95;;;;;;;-146.19;100.00;58918.88;4991962;28;20082;-54
2023/03/31 06:21:04;;;;;;;14.63;9.52;;;;;;;-146.19;100.00;58918.88;4995405;28;20085;-52
2023/03/31 06:23:33;;;;;;;11.35;6.05;;;;;;;-146.19;100.00;58918.88;4990754;28;20078;-52
2023/03/31 06:26:03;;;;;;;11.82;7.80;;;;;;;-146.19;100.00;58918.88;4994656;28;20086;-52
2023/03/31 06:28:32;;;;;;;12.05;6.85;;;;;;;-146.19;100.00;58918.88;4995868;28;20077;-50
2023/03/31 06:31:01;;;;;;;11.93;7.22;;;;;;;-146.19;100.00;58918.88;4995319;28;20093;-54
2023/03/31 06:33:31;;;;;;;11.75;6.90;;;;;;;-146.19;100.00;58918.88;4997373;28;20579;-50
2023/03/31 06:36:03;;;;;;;10.68;6.75;;;;;;;-146.19;100.00;58918.88;4992415;28;20082;-49
2023/03/31 06:38:32;;;;;;;10.85;6.95;;;;;;;-146.19;100.00;58918.88;4996259;28;20120;-52
2023/03/31 06:41:00;;;;;;;11.98;6.07;;;;;;;-146.19;100.00;58918.88;4994652;28;20097;-51
2023/03/31 06:43:28;;;;;;;15.52;12.10;;;;;;;-146.19;100.00;58918.88;4996581;28;20073;-54
2023/03/31 06:45:57;;;;;;;12.70;6.80;;;;;;;-146.19;100.00;58918.88;4993950;28;20166;-53
2023/03/31 06:48:26;;;;;;;10.98;6.95;;;;;;;-146.19;100.00;58918.88;4997166;28;20089;-55
2023/03/31 06:50:59;;;;;;;11.07;7.75;;;;;;;-146.19;100.00;58918.88;4992471;28;20127;-53
2023/03/31 06:53:27;;;;;;;10.45;7.05;;;;;;;-146.19;100.00;58918.88;4997525;28;20076;-53
2023/03/31 06:55:56;;;;;;;11.25;5.97;;;;;;;-146.19;100.00;58918.88;4997576;28;20090;-50
2023/03/31 06:58:24;;;;;;;11.50;8.02;;;;;;;-146.19;100.00;58918.88;4996498;28;20089;-54
2023/03/31 07:00:54;;;;;;;13.68;7.85;;;;;;;-146.19;100.00;58918.88;4995459;28;20088;-52
2023/03/31 07:03:23;;;;;;;13.35;6.68;;;;;;;-146.19;100.00;58918.88;4995660;28;20105;-50
2023/03/31 07:05:53;;;;;;;12.30;6.63;;;;;;;-146.19;100.00;58918.88;5000834;28;20476;-49
2023/03/31 07:08:23;;;;;;;11.77;6.28;;;;;;;-146.19;100.00;58918.88;4993989;28;20093;-50
2023/03/31 07:10:56;;;;;;;;;;;;;;;-146.19;100.00;58918.88;4999569;28;20496;-54
2023/03/31 07:13:28;;;;;;;9.48;5.63;;;;;;;-146.19;100.00;58918.88;4995225;28;20398;-53
2023/03/31 07:15:56;;;;;;;9.00;5.87;;;;;;;-146.19;100.00;58918.88;4992470;28;20104;-51
2023/03/31 07:18:30;;;;;;;10.30;5.63;;;;;;;-146.19;100.00;58918.88;4998148;28;20086;-51
2023/03/31 07:21:06;;;;;;;11.75;5.78;;;;;;;-146.19;100.00;58918.88;4997745;28;20817;-49
2023/03/31 07:23:38;;;;;;;11.63;6.82;;;;;;;-146.19;100.00;58918.88;4994193;28;20078;-53
2023/03/31 07:26:07;;;;;;;10.20;5.50;;;;;;;-146.19;100.00;58918.88;4995593;28;20096;-55
2023/03/31 07:28:35;;;;;;;9.00;5.75;;;;;;;-146.19;100.00;58918.88;4998636;28;20085;-49
2023/03/31 07:31:11;;;;;;;9.50;5.47;;;;;;;-146.19;100.00;58918.88;4994174;28;20050;-52
2023/03/31 07:33:39;;;;;;;7.78;5.30;;;;;;;-146.19;100.00;58918.88;4997656;28;20089;-50
2023/03/31 07:36:10;;;;;;;10.88;6.30;;;;;;;-146.19;100.00;58918.88;4993782;28;20120;-49
2023/03/31 07:38:44;;;;;;;11.32;5.90;;;;;;;-146.19;100.00;58918.88;4999345;28;20096;-51
2023/03/31 07:41:13;;;;;;;8.48;5.72;;;;;;;-146.19;100.00;58918.88;4993718;28;20550;-49
2023/03/31 07:43:42;;;;;;;10.73;6.03;;;;;;;-146.19;100.00;58918.88;4997838;28;20073;-47
2023/03/31 07:46:20;;;;;;;11.93;5.93;;;;;;;-146.19;100.00;58918.88;4998483;28;20089;-57
2023/03/31 07:48:50;;;;;;;23.00;11.48;;;;;;;-146.19;100.00;58918.88;4992454;28;20077;-51
2023/03/31 07:51:19;;;;;;;67.03;32.17;;;;;;;-146.19;100.00;58918.88;4997806;28;20074;-51
2023/03/31 07:53:51;;;;;;;13.65;7.50;;;;;;;-146.19;100.00;58918.88;4994633;28;20558;-51
2023/03/31 07:56:20;;;;;;;11.93;6.38;;;;;;;-146.19;100.00;58918.88;4991681;28;20574;-49
2023/03/31 07:58:50;;;;;;;9.23;5.88;;;;;;;-146.19;100.00;58918.88;4987754;28;20089;-52
2023/03/31 08:01:24;;;;;;;8.60;6.10;;;;;;;-146.19;100.00;58918.88;4999695;28;20074;-55
2023/03/31 08:03:54;;;;;;;12.25;5.80;;;;;;;-146.19;100.00;58918.88;4990648;28;20523;-50
2023/03/31 08:06:25;;;;;;;12.97;6.57;;;;;;;-146.19;100.00;58918.88;4986616;28;20092;-52
2023/03/31 08:08:54;;;;;;;8.98;6.28;;;;;;;-146.19;100.00;58918.88;4995045;28;20578;-51
2023/03/31 08:11:23;;;;;;;8.45;5.20;;;;;;;-146.19;100.00;58918.88;4991788;28;20081;-52
2023/03/31 08:13:52;;;;;;;11.65;6.28;;;;;;;-146.19;100.00;58918.88;4992048;28;20077;-51
2023/03/31 08:16:20;;;;;;;13.38;6.63;;;;;;;-146.19;100.00;58918.88;4988275;28;20085;-52
2023/03/31 08:18:49;;;;;;;9.68;5.80;;;;;;;-146.19;100.00;58918.88;4994926;28;20078;-51
2023/03/31 08:21:17;;;;;;;10.02;5.35;;;;;;;-146.19;100.00;58918.88;4994511;28;20088;-51
2023/03/31 08:23:46;;;;;;;10.30;5.40;;;;;;;-146.19;100.00;58918.88;4997998;28;20073;-53
2023/03/31 08:26:17;;;;;;;7.60;4.93;;;;;;;-146.19;100.00;58918.88;4994892;28;20078;-50
2023/03/31 08:28:47;;;;;;;7.32;4.85;;;;;;;-146.19;100.00;58918.88;5000320;28;20136;-50
2023/03/31 08:31:17;;;;;;;9.25;5.47;;;;;;;-146.19;100.00;58918.88;4993899;28;20078;-51
2023/03/31 08:33:46;;;;;;;9.23;5.43;;;;;;;-146.19;100.00;58918.88;4998336;28;20086;-51
2023/03/31 08:36:14;;;;;;;9.98;6.05;;;;;;;-146.19;100.00;58918.88;4988504;28;20089;-55
2023/03/31 08:38:44;;;;;;;22.10;10.85;;;;;;;-146.19;100.00;58918.88;4994172;28;20074;-47
2023/03/31 08:41:26;;;;;;;19.50;11.75;;;;;;;-146.19;100.00;58918.88;4996854;28;20092;-51
2023/03/31 08:43:56;;;;;;;9.90;6.75;;;;;;;-146.19;100.00;58918.88;4989899;28;20078;-51
2023/03/31 08:46:26;;;;;;;13.70;6.70;;;;;;;-146.19;100.00;58918.88;4998097;28;20085;-52
2023/03/31 08:48:55;;;;;;;10.60;5.80;;;;;;;-146.19;100.00;58918.88;4996015;28;20093;-49
2023/03/31 08:51:26;;;;;;;10.00;5.40;;;;;;;-146.19;100.00;58918.88;4994502;28;20077;-53
2023/03/31 08:53:58;;;;;;;10.27;5.40;;;;;;;-146.19;100.00;58918.88;4995103;28;20515;-54
2023/03/31 08:56:28;;;;;;;8.48;4.90;;;;;;;-146.19;100.00;58918.88;4992627;28;20082;-50
2023/03/31 08:59:00;;;;;;;9.95;5.22;;;;;;;-146.19;100.00;58918.88;4990462;28;20081;-52
2023/03/31 09:01:34;;;;;;;10.27;4.75;;;;;;;-146.19;100.00;58918.88;4995003;28;20553;-53
2023/03/31 09:04:29;;;;;;;8.23;4.15;;;;;;;-146.19;100.00;58918.88;4993470;28;22747;-51
2023/03/31 09:07:01;;;;;;;8.90;3.30;;;;;;;-146.19;100.00;58918.88;4994072;28;20550;-53
2023/03/31 09:09:37;;;;;;;7.15;4.32;;;;;;;-146.19;100.00;58918.88;4988769;28;20074;-49
2023/03/31 09:12:10;;;;;;;7.35;3.22;;;;;;;-146.19;100.00;58918.88;4994594;28;20081;-56
2023/03/31 09:14:41;;;;;;;5.57;3.20;;;;;;;-146.19;100.00;58918.88;4999199;28;20199;-57
2023/03/31 09:17:18;;;;;;;4.93;2.85;;;;;;;-146.19;100.00;58918.88;4999013;28;20078;-50
2023/03/31 09:19:50;;;;;;;7.65;2.75;;;;;;;-146.19;100.00;58918.88;4996900;28;20085;-50
2023/03/31 09:22:20;;;;;;;5.72;2.63;;;;;;;-146.19;100.00;58918.88;4997295;28;20086;-52
2023/03/31 09:24:53;;;;;;;4.05;2.80;;;;;;;-146.19;100.00;58918.88;4994793;28;20701;-52
2023/03/31 09:27:24;;;;;;;5.90;2.58;;;;;;;-146.19;100.00;58918.88;5005227;28;20097;-54
2023/03/31 09:29:55;;;;;;;5.45;3.03;;;;;;;-146.19;100.00;58918.88;4993643;28;20090;-49
2023/03/31 09:32:26;;;;;;;8.50;3.20;;;;;;;-146.19;100.00;58918.88;5004209;28;20077;-56
2023/03/31 09:35:00;;;;;;;6.22;2.88;;;;;;;-146.19;100.00;58918.88;4992944;28;20077;-50
2023/03/31 09:37:36;;;;;;;6.22;2.63;;;;;;;-146.19;100.00;58918.88;4992759;28;20081;-58
2023/03/31 09:40:10;;;;;;;5.43;3.13;;;;;;;-146.19;100.00;58918.88;4993097;28;20050;-51
2023/03/31 09:42:40;;;;;;;6.53;2.75;;;;;;;-146.19;100.00;58918.88;4994667;28;20086;-51
2023/03/31 09:45:16;;;;;;;6.07;3.25;;;;;;;-146.19;100.00;58918.88;4996412;28;20093;-55
2023/03/31 09:47:47;;;;;;;6.13;3.53;;;;;;;-146.19;100.00;58918.88;4994513;28;20070;-53
2023/03/31 09:50:16;;;;;;;7.03;3.70;;;;;;;-146.19;100.00;58918.88;4999524;28;20127;-52
2023/03/31 09:52:48;;;;;;;5.18;3.30;;;;;;;-146.19;100.00;58918.88;4994673;28;20507;-53
2023/03/31 09:55:20;;;;;;;5.45;3.47;;;;;;;-146.19;100.00;58918.88;4995887;28;20072;-50
2023/03/31 09:58:08;;;;;;;5.80;3.20;;;;;;;-146.19;100.00;58918.88;4994329;28;20069;-55
2023/03/31 10:00:36;;;;;;;4.72;2.80;;;;;;;-146.19;100.00;58918.88;4995738;28;20585;-55
2023/03/31 10:03:06;;;;;;;4.22;2.65;;;;;;;-146.19;100.00;58918.88;4993999;28;20072;-56
2023/03/31 10:05:37;;;;;;;5.45;3.38;;;;;;;-146.19;100.00;58918.88;4995083;28;20058;-53
2023/03/31 10:08:32;;;;;;;4.70;2.58;;;;;;;-146.19;100.00;58918.88;4995503;28;20078;-56
2023/03/31 10:11:10;;;;;;;6.40;2.97;;;;;;;-146.19;100.00;58918.88;4991355;28;20140;-51
2023/03/31 10:13:45;;;;;;;5.28;2.13;;;;;;;-146.19;100.00;58918.88;4993566;28;20073;-52
2023/03/31 10:16:21;;;;;;;3.33;2.25;;;;;;;-146.19;100.00;58918.88;4997725;28;20081;-51
2023/03/31 10:18:50;;;;;;;2.83;1.88;;;;;;;-146.19;100.00;58918.88;4996238;28;20093;-49
2023/03/31 10:21:24;;;;;;;3.17;1.52;;;;;;;-146.19;100.00;58918.88;4994839;28;20093;-50
2023/03/31 10:23:53;;;;;;;3.70;1.88;;;;;;;-146.19;100.00;58918.88;4992739;28;20078;-49
2023/03/31 10:26:25;;;;;;;3.03;2.28;;;;;;;-146.19;100.00;58918.88;4997308;28;20073;-50
2023/03/31 10:28:55;;;;;;;4.38;1.67;;;;;;;-146.19;100.00;58918.88;4994042;28;20089;-52
2023/03/31 10:31:26;;;;;;;2.10;1.27;;;;;;;-146.19;100.00;58918.88;5002402;28;20086;-52
2023/03/31 10:33:54;;;;;;;;;;;;;;;-146.19;100.00;58918.88;4991275;28;20086;-53
2023/03/31 10:36:25;;;;;;;3.60;1.75;;;;;;;-146.19;100.00;58918.88;4998293;28;19953;-51
2023/03/31 10:38:54;;;;;;;3.03;1.50;;;;;;;-146.19;100.00;58918.88;4989683;28;20126;-52
2023/03/31 10:41:24;;;;;;;2.35;1.20;;;;;;;-146.19;100.00;58918.88;4992470;28;20081;-51
2023/03/31 10:43:54;;;;;;;2.40;1.20;;;;;;;-146.19;100.00;58918.88;4990091;28;20089;-57
2023/03/31 10:46:40;;;;;;;10.35;1.40;;;;;;;-146.19;100.00;58918.88;4996772;28;20081;-49
2023/03/31 10:49:16;;;;;;;2.05;1.08;;;;;;;-146.19;100.00;58918.88;4999162;28;20078;-55
2023/03/31 10:51:52;;;;;;;2.20;1.40;;;;;;;-146.19;100.00;58918.88;4990558;28;20143;-53
2023/03/31 10:54:21;;;;;;;6.05;1.60;;;;;;;-146.19;100.00;58918.88;5001346;28;20093;-52
2023/03/31 10:56:52;;;;;;;3.17;1.30;;;;;;;-146.19;100.00;58918.88;4995017;28;20447;-53
2023/03/31 10:59:38;;;;;;;3.17;1.40;;;;;;;-146.19;100.00;58918.88;4998974;28;20074;-51
2023/03/31 11:02:36;;;;;;;4.20;1.05;;;;;;;-146.19;100.00;58918.88;4992047;28;20092;-52
2023/03/31 11:05:13;;;;;;;3.20;1.63;;;;;;;-146.19;100.00;58918.88;4993337;28;20093;-49
2023/03/31 11:07:50;;;;;;;3.47;1.08;;;;;;;-146.19;100.00;58918.88;4991470;28;20133;-50
2023/03/31 11:10:47;;;;;;;2.42;1.30;;;;;;;-146.19;100.00;58918.88;4992868;28;20086;-55
2023/03/31 11:13:22;;;;;;;2.40;0.95;;;;;;;-146.19;100.00;58918.88;4982449;28;20507;-52
2023/03/31 11:15:56;;;;;;;4.72;1.15;;;;;;;-146.19;100.00;58918.88;5000506;28;20089;-56
2023/03/31 11:18:49;;;;;;;2.33;1.10;;;;;;;-146.19;100.00;58918.88;4998517;28;20568;-50
2023/03/31 11:21:21;;;;;;;1.58;1.20;;;;;;;-146.19;100.00;58918.88;4997573;28;20089;-55
2023/03/31 11:23:57;;;;;;;4.18;1.30;;;;;;;-146.19;100.00;58918.88;4991210;28;20089;-54
2023/03/31 11:26:33;;;;;;;3.30;1.20;;;;;;;-146.19;100.00;58918.88;4999454;28;20078;-54
2023/03/31 11:29:11;;;;;;;3.75;1.10;;;;;;;-146.19;100.00;58918.88;4994742;28;20097;-54
2023/03/31 11:31:48;;;;;;;2.25;1.02;;;;;;;-146.19;100.00;58918.88;4988504;28;20082;-54
2023/03/31 11:34:40;;;;;;;1.95;1.05;;;;;;;-146.19;100.00;58918.88;4993449;28;20086;-52
2023/03/31 11:37:30;;;;;;;0.82;0.70;;;;;;;-146.19;100.00;58918.88;4991625;28;20118;-50
2023/03/31 11:40:21;;;;;;;1.50;0.77;;;;;;;-146.19;100.00;58918.88;4989524;28;20093;-53
2023/03/31 11:42:52;;;;;;;1.38;0.68;;;;;;;-146.19;100.00;58918.88;4989541;28;20082;-48
2023/03/31 11:45:23;;;;;;;2.45;0.68;;;;;;;-146.19;100.00;58918.88;4988681;28;20491;-52
2023/03/31 11:47:58;;;;;;;1.80;0.70;;;;;;;-146.19;100.00;58918.88;4986414;28;20089;-49